Time,TemperatureF,DewpointF,PressureIn,WindDirection,WindDirectionDegrees,WindSpeedMPH,WindSpeedGustMPH,Humidity,HourlyPrecipIn,Conditions,Clouds,dailyrainin,SoftwareType,DateUTC
2013-08-14 00:04:00,53.4,48.7,29.17,ESE,112,0.0,0.0,84,0.00,,---,0.00,VWS V14.01,2013-08-14 05:04:00,
2013-08-14 00:09:00,53.6,48.9,29.17,ESE,112,0.0,0.0,84,0.00,,---,0.00,VWS V14.01,2013-08-14 05:09:00,
2013-08-14 00:14:00,54.0,49.6,29.17,ESE,112,0.0,0.0,85,0.00,,---,0.00,VWS V14.01,2013-08-14 05:14:00,
2013-08-14 00:19:00,54.1,49.7,29.17,ESE,112,0.0,0.0,85,0.00,,---,0.00,VWS V14.01,2013-08-14 05:19:00,
2013-08-14 00:24:00,54.1,49.7,29.17,ESE,112,0.0,0.0,85,0.00,,---,0.00,VWS V14.01,2013-08-14 05:24:00,
2013-08-14 00:29:00,54.1,49.7,29.17,ESE,112,0.0,0.0,85,0.00,,---,0.00,VWS V14.01,2013-08-14 05:29:00,
2013-08-14 00:34:00,54.0,49.2,29.17,ESE,112,0.0,0.0,84,0.00,,---,0.00,VWS V14.01,2013-08-14 05:34:00,
2013-08-14 00:39:00,54.0,49.2,29.17,ESE,112,0.0,0.0,84,0.00,,---,0.00,VWS V14.01,2013-08-14 05:39:00,
2013-08-14 00:44:00,53.8,48.8,29.17,ESE,112,0.0,0.0,83,0.00,,---,0.00,VWS V14.01,2013-08-14 05:44:00,
2013-08-14 00:49:00,54.3,49.6,29.17,ESE,112,0.0,0.0,84,0.00,,---,0.00,VWS V14.01,2013-08-14 05:49:00,
2013-08-14 00:54:00,54.3,49.6,29.17,ESE,112,0.0,0.0,84,0.00,,---,0.00,VWS V14.01,2013-08-14 05:54:00,
2013-08-14 01:00:00,54.1,49.4,29.20,ESE,112,0.0,0.0,84,0.00,,---,0.00,VWS V14.01,2013-08-14 06:00:00,
2013-08-14 01:05:00,54.3,49.6,29.20,ESE,112,0.0,0.0,84,0.00,,---,0.00,VWS V14.01,2013-08-14 06:05:00,
2013-08-14 01:10:00,54.3,49.9,29.20,ESE,112,0.0,0.0,85,0.00,,---,0.00,VWS V14.01,2013-08-14 06:10:00,
2013-08-14 01:15:00,54.3,49.9,29.17,ESE,112,0.0,0.0,85,0.00,,---,0.00,VWS V14.01,2013-08-14 06:15:00,
2013-08-14 01:20:00,54.3,49.6,29.17,ESE,112,0.0,0.0,84,0.00,,---,0.00,VWS V14.01,2013-08-14 06:20:00,
2013-08-14 01:25:00,54.5,49.8,29.17,ESE,112,0.0,0.0,84,0.00,,---,0.00,VWS V14.01,2013-08-14 06:25:00,
2013-08-14 01:30:00,54.5,49.8,29.17,ESE,112,0.0,0.0,84,0.00,,---,0.00,VWS V14.01,2013-08-14 06:30:00,
2013-08-14 01:35:00,54.5,49.8,29.17,ESE,112,0.0,0.0,84,0.00,,---,0.00,VWS V14.01,2013-08-14 06:35:00,
2013-08-14 01:40:00,54.5,49.8,29.17,ESE,112,0.0,0.0,84,0.00,,---,0.00,VWS V14.01,2013-08-14 06:40:00,
2013-08-14 01:45:00,54.3,49.6,29.20,ESE,112,0.0,0.0,84,0.00,,---,0.00,VWS V14.01,2013-08-14 06:45:00,
2013-08-14 01:50:00,54.0,49.2,29.20,ESE,112,0.0,0.0,84,0.00,,---,0.00,VWS V14.01,2013-08-14 06:50:00,
2013-08-14 01:55:00,54.3,49.9,29.20,ESE,112,0.0,0.0,85,0.00,,---,0.00,VWS V14.01,2013-08-14 06:55:00,
2013-08-14 02:00:00,54.3,49.6,29.17,ESE,112,0.0,0.0,84,0.00,,---,0.00,VWS V14.01,2013-08-14 07:00:00,
2013-08-14 02:06:00,54.7,50.0,29.17,ESE,112,0.0,0.0,84,0.00,,---,0.00,VWS V14.01,2013-08-14 07:06:00,
2013-08-14 02:11:00,54.5,49.8,29.17,ESE,112,0.0,0.0,84,0.00,,---,0.00,VWS V14.01,2013-08-14 07:11:00,
2013-08-14 02:16:00,54.3,49.9,29.17,ESE,112,0.0,0.0,85,0.00,,---,0.00,VWS V14.01,2013-08-14 07:16:00,
2013-08-14 02:21:00,54.5,49.8,29.17,ESE,112,0.0,0.0,84,0.00,,---,0.00,VWS V14.01,2013-08-14 07:21:00,
2013-08-14 02:26:00,54.5,49.8,29.17,ESE,112,0.0,0.0,84,0.00,,---,0.00,VWS V14.01,2013-08-14 07:26:00,
2013-08-14 02:31:00,54.3,49.6,29.17,ESE,112,0.0,0.0,84,0.00,,---,0.00,VWS V14.01,2013-08-14 07:31:00,
2013-08-14 02:36:00,54.3,49.9,29.17,ESE,112,0.0,0.0,85,0.00,,---,0.00,VWS V14.01,2013-08-14 07:36:00,
2013-08-14 02:41:00,54.1,49.7,29.17,ESE,112,0.0,0.0,85,0.00,,---,0.00,VWS V14.01,2013-08-14 07:41:00,
2013-08-14 02:46:00,54.5,50.1,29.17,ESE,112,0.0,0.0,85,0.00,,---,0.00,VWS V14.01,2013-08-14 07:46:00,
2013-08-14 02:51:00,54.5,49.5,29.17,ESE,112,0.0,0.0,83,0.00,,---,0.00,VWS V14.01,2013-08-14 07:51:00,
2013-08-14 02:56:00,54.5,49.5,29.17,ESE,112,0.0,0.0,83,0.00,,---,0.00,VWS V14.01,2013-08-14 07:56:00,
2013-08-14 03:01:00,54.3,49.6,29.17,ESE,112,0.0,0.0,84,0.00,,---,0.00,VWS V14.01,2013-08-14 08:01:00,
2013-08-14 03:06:00,54.0,49.6,29.17,ESE,112,0.0,0.0,85,0.00,,---,0.00,VWS V14.01,2013-08-14 08:06:00,
2013-08-14 03:12:00,53.8,49.7,29.17,ESE,112,0.0,0.0,86,0.00,,---,0.00,VWS V14.01,2013-08-14 08:12:00,
2013-08-14 03:17:00,53.6,49.5,29.17,ESE,112,0.0,0.0,86,0.00,,---,0.00,VWS V14.01,2013-08-14 08:17:00,
2013-08-14 03:22:00,53.8,50.3,29.17,ESE,112,0.0,0.0,88,0.00,,---,0.00,VWS V14.01,2013-08-14 08:22:00,
2013-08-14 03:27:00,54.0,50.5,29.17,ESE,112,0.0,0.0,88,0.00,,---,0.00,VWS V14.01,2013-08-14 08:27:00,
2013-08-14 03:32:00,53.8,50.3,29.17,ESE,112,0.0,0.0,88,0.00,,---,0.00,VWS V14.01,2013-08-14 08:32:00,
2013-08-14 03:37:00,53.8,50.0,29.17,ESE,112,0.0,0.0,87,0.00,,---,0.00,VWS V14.01,2013-08-14 08:37:00,
2013-08-14 03:42:00,53.6,49.8,29.17,ESE,112,0.0,0.0,87,0.00,,---,0.00,VWS V14.01,2013-08-14 08:42:00,
2013-08-14 03:47:00,53.4,49.7,29.17,ESE,112,0.0,0.0,87,0.00,,---,0.00,VWS V14.01,2013-08-14 08:47:00,
2013-08-14 03:52:00,53.2,49.8,29.17,ESE,112,0.0,0.0,88,0.00,,---,0.00,VWS V14.01,2013-08-14 08:52:00,
2013-08-14 03:57:00,53.1,49.6,29.20,ESE,112,0.0,0.0,88,0.00,,---,0.00,VWS V14.01,2013-08-14 08:57:00,
2013-08-14 04:02:00,53.1,49.9,29.20,ESE,112,0.0,0.0,89,0.00,,---,0.00,VWS V14.01,2013-08-14 09:02:00,
2013-08-14 04:07:00,53.1,50.2,29.20,ESE,112,0.0,0.0,90,0.00,,---,0.00,VWS V14.01,2013-08-14 09:07:00,
2013-08-14 04:12:00,53.2,50.7,29.20,ESE,112,0.0,0.0,91,0.00,,---,0.00,VWS V14.01,2013-08-14 09:12:00,
2013-08-14 04:17:00,53.2,50.7,29.20,ESE,112,0.0,0.0,91,0.00,,---,0.00,VWS V14.01,2013-08-14 09:17:00,
2013-08-14 04:22:00,53.2,51.0,29.20,ESE,112,0.0,0.0,92,0.00,,---,0.00,VWS V14.01,2013-08-14 09:22:00,
2013-08-14 04:27:00,53.6,51.3,29.20,ESE,112,0.0,0.0,92,0.00,,---,0.00,VWS V14.01,2013-08-14 09:27:00,
2013-08-14 04:33:00,53.8,51.8,29.20,ESE,112,0.0,0.0,93,0.00,,---,0.00,VWS V14.01,2013-08-14 09:33:00,
2013-08-14 04:38:00,53.6,51.6,29.20,ESE,112,0.0,0.0,93,0.00,,---,0.00,VWS V14.01,2013-08-14 09:38:00,
2013-08-14 04:43:00,53.6,51.3,29.20,ESE,112,0.0,0.0,92,0.00,,---,0.00,VWS V14.01,2013-08-14 09:43:00,
2013-08-14 04:48:00,53.6,51.3,29.20,ESE,112,0.0,0.0,92,0.00,,---,0.00,VWS V14.01,2013-08-14 09:48:00,
2013-08-14 04:53:00,53.2,51.0,29.20,ESE,112,0.0,0.0,92,0.00,,---,0.00,VWS V14.01,2013-08-14 09:53:00,
2013-08-14 04:58:00,53.1,50.8,29.20,ESE,112,0.0,0.0,92,0.00,,---,0.00,VWS V14.01,2013-08-14 09:58:00,
2013-08-14 05:03:00,52.9,50.6,29.20,ESE,112,0.0,0.0,92,0.00,,---,0.00,VWS V14.01,2013-08-14 10:03:00,
2013-08-14 05:08:00,52.7,50.5,29.20,ESE,112,0.0,0.0,92,0.00,,---,0.00,VWS V14.01,2013-08-14 10:08:00,
2013-08-14 05:13:00,52.5,50.6,29.20,ESE,112,0.0,0.0,93,0.00,,---,0.00,VWS V14.01,2013-08-14 10:13:00,
2013-08-14 05:18:00,52.5,50.6,29.20,ESE,112,0.0,0.0,93,0.00,,---,0.00,VWS V14.01,2013-08-14 10:18:00,
2013-08-14 05:23:00,52.5,50.8,29.20,ESE,112,0.0,0.0,94,0.00,,---,0.00,VWS V14.01,2013-08-14 10:23:00,
2013-08-14 05:28:00,52.5,50.8,29.20,ESE,112,0.0,0.0,94,0.00,,---,0.00,VWS V14.01,2013-08-14 10:28:00,
2013-08-14 05:33:00,52.3,50.7,29.20,ESE,112,0.0,0.0,94,0.00,,---,0.00,VWS V14.01,2013-08-14 10:33:00,
2013-08-14 05:38:00,52.5,50.8,29.20,ESE,112,0.0,0.0,94,0.00,,---,0.00,VWS V14.01,2013-08-14 10:38:00,
2013-08-14 05:43:00,52.3,50.7,29.20,ESE,112,0.0,0.0,94,0.00,,---,0.00,VWS V14.01,2013-08-14 10:43:00,
2013-08-14 05:49:00,52.3,50.7,29.20,ESE,112,0.0,0.0,94,0.00,,---,0.00,VWS V14.01,2013-08-14 10:49:00,
2013-08-14 05:54:00,52.3,50.7,29.20,ESE,112,0.0,0.0,94,0.00,,---,0.00,VWS V14.01,2013-08-14 10:54:00,
2013-08-14 05:59:00,52.2,50.5,29.20,ESE,112,0.0,0.0,94,0.00,,---,0.00,VWS V14.01,2013-08-14 10:59:00,
2013-08-14 06:04:00,52.0,50.3,29.20,ESE,112,0.0,0.0,94,0.00,,---,0.00,VWS V14.01,2013-08-14 11:04:00,
2013-08-14 06:09:00,51.8,50.1,29.20,ESE,112,0.0,0.0,94,0.00,,---,0.00,VWS V14.01,2013-08-14 11:09:00,
2013-08-14 06:14:00,51.6,50.0,29.20,ESE,112,0.0,0.0,94,0.00,,---,0.00,VWS V14.01,2013-08-14 11:14:00,
2013-08-14 06:19:00,51.4,49.8,29.20,ESE,112,0.0,0.0,94,0.00,,---,0.00,VWS V14.01,2013-08-14 11:19:00,
2013-08-14 06:25:00,51.6,50.0,29.20,ESE,112,0.0,0.0,94,0.00,,---,0.00,VWS V14.01,2013-08-14 11:25:00,
2013-08-14 06:30:00,51.6,50.2,29.20,ESE,112,0.0,0.0,95,0.00,,---,0.00,VWS V14.01,2013-08-14 11:30:00,
2013-08-14 06:35:00,51.8,50.1,29.20,ESE,112,0.0,2.2,94,0.00,,---,0.00,VWS V14.01,2013-08-14 11:35:00,
2013-08-14 06:40:00,52.0,50.6,29.20,ESE,112,0.0,0.0,95,0.00,,---,0.00,VWS V14.01,2013-08-14 11:40:00,
2013-08-14 06:45:00,52.2,50.8,29.20,ESE,112,0.0,0.0,95,0.00,,---,0.00,VWS V14.01,2013-08-14 11:45:00,
2013-08-14 06:50:00,52.5,51.1,29.20,ESE,112,0.0,0.0,95,0.00,,---,0.00,VWS V14.01,2013-08-14 11:50:00,
2013-08-14 06:55:00,53.1,51.4,29.20,ESE,112,0.0,0.0,94,0.00,,---,0.00,VWS V14.01,2013-08-14 11:55:00,
2013-08-14 07:00:00,53.2,50.7,29.20,ESE,112,0.0,0.0,91,0.00,,---,0.00,VWS V14.01,2013-08-14 12:00:00,
2013-08-14 07:06:00,53.6,50.4,29.20,ESE,112,0.0,0.0,89,0.00,,---,0.00,VWS V14.01,2013-08-14 12:06:00,
2013-08-14 07:11:00,54.5,51.0,29.20,ESE,112,0.0,0.0,88,0.00,,---,0.00,VWS V14.01,2013-08-14 12:11:00,
2013-08-14 07:16:00,55.0,51.2,29.20,ESE,112,2.7,2.7,87,0.00,,---,0.00,VWS V14.01,2013-08-14 12:16:00,
2013-08-14 07:21:00,55.9,51.2,29.20,ESE,112,0.0,0.0,84,0.00,,---,0.00,VWS V14.01,2013-08-14 12:21:00,
2013-08-14 07:26:00,56.5,50.7,29.20,ESE,112,3.1,3.1,81,0.00,,---,0.00,VWS V14.01,2013-08-14 12:26:00,
2013-08-14 07:31:00,57.0,50.6,29.20,ESE,112,0.0,0.0,79,0.00,,---,0.00,VWS V14.01,2013-08-14 12:31:00,
2013-08-14 07:36:00,57.7,50.2,29.20,ESE,112,0.0,0.0,76,0.00,,---,0.00,VWS V14.01,2013-08-14 12:36:00,
2013-08-14 07:41:00,58.5,49.8,29.20,ESE,112,0.0,0.0,73,0.00,,---,0.00,VWS V14.01,2013-08-14 12:41:00,
2013-08-14 07:46:00,58.8,48.7,29.20,ESE,112,3.1,3.6,69,0.00,,---,0.00,VWS V14.01,2013-08-14 12:46:00,
2013-08-14 07:52:00,59.2,49.0,29.20,ESE,112,2.2,3.1,69,0.00,,---,0.00,VWS V14.01,2013-08-14 12:52:00,
2013-08-14 07:57:00,59.7,49.2,29.20,ESE,112,2.7,2.7,68,0.00,,---,0.00,VWS V14.01,2013-08-14 12:57:00,
2013-08-14 08:02:00,60.4,48.6,29.20,ESE,112,0.0,0.0,65,0.00,,---,0.00,VWS V14.01,2013-08-14 13:02:00,
2013-08-14 08:07:00,60.8,48.1,29.20,ESE,112,2.7,3.1,63,0.00,,---,0.00,VWS V14.01,2013-08-14 13:07:00,
2013-08-14 08:12:00,61.3,47.3,29.20,ESE,112,4.0,4.0,60,0.00,,---,0.00,VWS V14.01,2013-08-14 13:12:00,
2013-08-14 08:17:00,61.3,46.9,29.20,ESE,112,4.0,4.9,59,0.00,,---,0.00,VWS V14.01,2013-08-14 13:17:00,
2013-08-14 08:22:00,61.9,47.4,29.20,ESE,112,4.9,4.9,59,0.00,,---,0.00,VWS V14.01,2013-08-14 13:22:00,
2013-08-14 08:27:00,61.9,46.5,29.20,ESE,112,2.7,5.4,57,0.00,,---,0.00,VWS V14.01,2013-08-14 13:27:00,
2013-08-14 08:32:00,62.6,47.6,29.20,ESE,112,3.1,3.1,58,0.00,,---,0.00,VWS V14.01,2013-08-14 13:32:00,
2013-08-14 08:37:00,62.6,46.2,29.20,ESE,112,4.0,4.0,55,0.00,,---,0.00,VWS V14.01,2013-08-14 13:37:00,
2013-08-14 08:42:00,63.0,47.0,29.20,ESE,112,0.0,0.0,56,0.00,,---,0.00,VWS V14.01,2013-08-14 13:42:00,
2013-08-14 08:48:00,63.7,47.7,29.20,ESE,112,2.7,2.7,56,0.00,,---,0.00,VWS V14.01,2013-08-14 13:48:00,
2013-08-14 08:53:00,64.0,47.6,29.20,ESE,112,3.1,3.1,55,0.00,,---,0.00,VWS V14.01,2013-08-14 13:53:00,
2013-08-14 08:58:00,64.6,47.6,29.20,ESE,112,2.2,4.0,54,0.00,,---,0.00,VWS V14.01,2013-08-14 13:58:00,
2013-08-14 09:03:00,65.7,48.1,29.20,ESE,112,2.7,4.0,53,0.00,,---,0.00,VWS V14.01,2013-08-14 14:03:00,
2013-08-14 09:08:00,65.8,47.7,29.20,ESE,112,5.4,5.4,52,0.00,,---,0.00,VWS V14.01,2013-08-14 14:08:00,
2013-08-14 09:13:00,65.7,48.1,29.20,ESE,112,3.1,3.6,53,0.00,,---,0.00,VWS V14.01,2013-08-14 14:13:00,
2013-08-14 09:18:00,66.2,47.6,29.20,ESE,112,5.4,5.4,51,0.00,,---,0.00,VWS V14.01,2013-08-14 14:18:00,
2013-08-14 09:23:00,66.0,47.4,29.20,ESE,112,2.2,3.1,51,0.00,,---,0.00,VWS V14.01,2013-08-14 14:23:00,
2013-08-14 09:28:00,66.6,47.4,29.20,ESE,112,0.0,0.0,50,0.00,,---,0.00,VWS V14.01,2013-08-14 14:28:00,
2013-08-14 09:33:00,66.9,46.0,29.20,ESE,112,3.1,3.6,47,0.00,,---,0.00,VWS V14.01,2013-08-14 14:33:00,
2013-08-14 09:39:00,67.5,47.1,29.20,ESE,112,2.2,3.1,48,0.00,,---,0.00,VWS V14.01,2013-08-14 14:39:00,
2013-08-14 09:44:00,67.8,46.9,29.17,ESE,112,3.6,3.6,47,0.00,,---,0.00,VWS V14.01,2013-08-14 14:44:00,
2013-08-14 09:49:00,67.6,46.7,29.17,ESE,112,0.0,0.0,47,0.00,,---,0.00,VWS V14.01,2013-08-14 14:49:00,
2013-08-14 09:54:00,68.4,47.4,29.17,ESE,112,2.7,2.7,47,0.00,,---,0.00,VWS V14.01,2013-08-14 14:54:00,
2013-08-14 09:59:00,69.3,47.6,29.20,ESE,112,0.0,0.0,46,0.00,,---,0.00,VWS V14.01,2013-08-14 14:59:00,
2013-08-14 10:04:00,70.3,47.4,29.20,ESE,112,0.0,0.0,44,0.00,,---,0.00,VWS V14.01,2013-08-14 15:04:00,
2013-08-14 10:09:00,71.1,47.5,29.20,East,90,4.0,4.0,43,0.00,,---,0.00,VWS V14.01,2013-08-14 15:09:00,
2013-08-14 10:14:00,70.0,46.5,29.20,East,90,2.2,2.2,43,0.00,,---,0.00,VWS V14.01,2013-08-14 15:14:00,
2013-08-14 10:19:00,69.6,46.8,29.20,North,0,4.5,4.9,44,0.00,,---,0.00,VWS V14.01,2013-08-14 15:19:00,
2013-08-14 10:24:00,70.0,46.5,29.20,North,0,0.0,0.0,43,0.00,,---,0.00,VWS V14.01,2013-08-14 15:24:00,
2013-08-14 10:29:00,69.8,45.7,29.20,North,0,2.2,4.0,42,0.00,,---,0.00,VWS V14.01,2013-08-14 15:29:00,
2013-08-14 10:35:00,69.8,46.3,29.20,NNW,338,4.0,4.9,43,0.00,,---,0.00,VWS V14.01,2013-08-14 15:35:00,
2013-08-14 10:40:00,70.2,46.6,29.20,NNW,338,0.0,0.0,43,0.00,,---,0.00,VWS V14.01,2013-08-14 15:40:00,
2013-08-14 10:45:00,70.7,46.5,29.17,NNW,338,0.0,3.6,42,0.00,,---,0.00,VWS V14.01,2013-08-14 15:45:00,
2013-08-14 10:50:00,70.9,46.7,29.17,NNW,338,0.0,0.0,42,0.00,,---,0.00,VWS V14.01,2013-08-14 15:50:00,
2013-08-14 10:55:00,70.5,45.7,29.17,NNW,338,4.0,4.0,41,0.00,,---,0.00,VWS V14.01,2013-08-14 15:55:00,
2013-08-14 11:00:00,70.3,46.2,29.17,East,90,4.0,4.0,42,0.00,,---,0.00,VWS V14.01,2013-08-14 16:00:00,
2013-08-14 11:05:00,70.0,45.9,29.17,East,90,2.7,4.0,42,0.00,,---,0.00,VWS V14.01,2013-08-14 16:05:00,
2013-08-14 11:10:00,70.3,46.8,29.17,ESE,112,2.2,2.2,43,0.00,,---,0.00,VWS V14.01,2013-08-14 16:10:00,
2013-08-14 11:15:00,70.3,46.2,29.20,ESE,112,2.2,2.7,42,0.00,,---,0.00,VWS V14.01,2013-08-14 16:15:00,
2013-08-14 11:21:00,70.7,46.5,29.20,ESE,112,0.0,2.7,42,0.00,,---,0.00,VWS V14.01,2013-08-14 16:21:00,
2013-08-14 11:26:00,71.4,46.5,29.20,ESE,112,0.0,0.0,41,0.00,,---,0.00,VWS V14.01,2013-08-14 16:26:00,
2013-08-14 11:31:00,72.5,46.8,29.20,ESE,112,0.0,0.0,40,0.00,,---,0.00,VWS V14.01,2013-08-14 16:31:00,
2013-08-14 11:36:00,72.3,46.7,29.20,ESE,112,0.0,0.0,40,0.00,,---,0.00,VWS V14.01,2013-08-14 16:36:00,
2013-08-14 11:41:00,71.8,46.2,29.17,ESE,112,4.9,6.7,40,0.00,,---,0.00,VWS V14.01,2013-08-14 16:41:00,
2013-08-14 11:46:00,72.0,45.7,29.17,ESE,112,2.2,2.7,39,0.00,,---,0.00,VWS V14.01,2013-08-14 16:46:00,
2013-08-14 11:51:00,71.8,44.1,29.17,WNW,292,0.0,2.2,37,0.00,,---,0.00,VWS V14.01,2013-08-14 16:51:00,
2013-08-14 11:56:00,71.8,44.1,29.20,WNW,292,4.0,4.0,37,0.00,,---,0.00,VWS V14.01,2013-08-14 16:56:00,
2013-08-14 12:02:00,71.6,44.0,29.20,WNW,292,0.0,0.0,37,0.00,,---,0.00,VWS V14.01,2013-08-14 17:02:00,
2013-08-14 12:07:00,72.9,45.1,29.20,SSE,158,0.0,2.2,37,0.00,,---,0.00,VWS V14.01,2013-08-14 17:07:00,
2013-08-14 12:12:00,73.6,44.3,29.17,SSW,202,3.1,4.9,35,0.00,,---,0.00,VWS V14.01,2013-08-14 17:12:00,
2013-08-14 12:17:00,73.9,44.6,29.17,ESE,112,0.0,4.0,35,0.00,,---,0.00,VWS V14.01,2013-08-14 17:17:00,
2013-08-14 12:22:00,73.9,44.6,29.17,WNW,292,2.7,2.7,35,0.00,,---,0.00,VWS V14.01,2013-08-14 17:22:00,
2013-08-14 12:27:00,72.5,43.3,29.17,WSW,248,4.9,4.9,35,0.00,,---,0.00,VWS V14.01,2013-08-14 17:27:00,
2013-08-14 12:33:00,72.5,44.1,29.17,ESE,112,4.5,4.5,36,0.00,,---,0.00,VWS V14.01,2013-08-14 17:33:00,
2013-08-14 12:38:00,72.3,43.9,29.17,WNW,292,3.6,5.8,36,0.00,,---,0.00,VWS V14.01,2013-08-14 17:38:00,
2013-08-14 12:43:00,71.8,43.4,29.17,West,270,3.1,4.0,36,0.00,,---,0.00,VWS V14.01,2013-08-14 17:43:00,
2013-08-14 12:45:00,72.1,43.7,29.17,West,270,4.0,4.0,36,0.00,,---,0.00,VWS V14.01,2013-08-14 17:45:00,
2013-08-14 12:50:00,73.2,43.2,29.17,SSE,158,0.0,3.6,34,0.00,,---,0.00,VWS V14.01,2013-08-14 17:50:00,
2013-08-14 12:55:00,74.7,44.5,29.17,SSE,158,2.7,3.6,34,0.00,,---,0.00,VWS V14.01,2013-08-14 17:55:00,
2013-08-14 13:00:00,73.8,42.9,29.17,West,270,2.7,3.6,33,0.00,,---,0.00,VWS V14.01,2013-08-14 18:00:00,
2013-08-14 13:06:00,73.4,43.3,29.17,WNW,292,3.6,4.0,34,0.00,,---,0.00,VWS V14.01,2013-08-14 18:06:00,
2013-08-14 13:11:00,73.9,43.8,29.17,WNW,292,4.0,5.4,34,0.00,,---,0.00,VWS V14.01,2013-08-14 18:11:00,
2013-08-14 13:16:00,72.9,42.9,29.17,WNW,292,2.7,4.9,34,0.00,,---,0.00,VWS V14.01,2013-08-14 18:16:00,
2013-08-14 13:21:00,73.8,43.7,29.17,WNW,292,0.0,2.7,34,0.00,,---,0.00,VWS V14.01,2013-08-14 18:21:00,
2013-08-14 13:28:00,75.0,44.0,29.14,West,270,4.0,4.5,33,0.00,,---,0.00,VWS V14.01,2013-08-14 18:28:00,
2013-08-14 13:33:00,74.8,43.8,29.14,ESE,112,3.6,5.4,33,0.00,,---,0.00,VWS V14.01,2013-08-14 18:33:00,
2013-08-14 13:38:00,75.2,43.3,29.14,WNW,292,2.2,5.4,32,0.00,,---,0.00,VWS V14.01,2013-08-14 18:38:00,
2013-08-14 13:43:00,74.7,42.9,29.14,West,270,7.6,12.8,32,0.00,,---,0.00,VWS V14.01,2013-08-14 18:43:00,
2013-08-14 13:49:00,73.2,42.4,29.14,West,270,5.4,5.4,33,0.00,,---,0.00,VWS V14.01,2013-08-14 18:49:00,
2013-08-14 13:54:00,73.6,42.7,29.14,WNW,292,3.1,7.6,33,0.00,,---,0.00,VWS V14.01,2013-08-14 18:54:00,
2013-08-14 13:59:00,74.7,42.9,29.14,WNW,292,4.0,4.9,32,0.00,,---,0.00,VWS V14.01,2013-08-14 18:59:00,
2013-08-14 14:04:00,75.0,43.2,29.14,WNW,292,4.9,4.9,32,0.00,,---,0.00,VWS V14.01,2013-08-14 19:04:00,
2013-08-14 14:12:00,75.7,43.8,29.14,West,270,5.8,6.3,32,0.00,,---,0.00,VWS V14.01,2013-08-14 19:12:00,
2013-08-14 14:17:00,75.9,44.0,29.14,WNW,292,5.4,5.4,32,0.00,,---,0.00,VWS V14.01,2013-08-14 19:17:00,
2013-08-14 14:23:00,76.1,44.1,29.14,WSW,248,3.6,3.6,32,0.00,,---,0.00,VWS V14.01,2013-08-14 19:23:00,
2013-08-14 14:28:00,75.0,43.2,29.17,West,270,3.6,7.6,32,0.00,,---,0.00,VWS V14.01,2013-08-14 19:28:00,
2013-08-14 14:34:00,75.2,43.3,29.17,WNW,292,7.6,7.6,32,0.00,,---,0.00,VWS V14.01,2013-08-14 19:34:00,
2013-08-14 14:39:00,75.4,43.5,29.17,WNW,292,6.3,7.2,32,0.00,,---,0.00,VWS V14.01,2013-08-14 19:39:00,
2013-08-14 14:44:00,74.8,43.0,29.14,West,270,8.7,8.7,32,0.00,,---,0.00,VWS V14.01,2013-08-14 19:44:00,
2013-08-14 14:49:00,75.2,43.3,29.14,West,270,2.7,3.6,32,0.00,,---,0.00,VWS V14.01,2013-08-14 19:49:00,
2013-08-14 14:54:00,76.3,44.3,29.14,WSW,248,2.7,4.9,32,0.00,,---,0.00,VWS V14.01,2013-08-14 19:54:00,
2013-08-14 14:59:00,76.5,43.6,29.14,West,270,5.8,5.8,31,0.00,,---,0.00,VWS V14.01,2013-08-14 19:59:00,
2013-08-14 15:05:00,76.3,43.5,29.14,West,270,5.4,5.4,31,0.00,,---,0.00,VWS V14.01,2013-08-14 20:05:00,
2013-08-14 15:10:00,76.6,43.8,29.14,ESE,112,3.1,4.9,31,0.00,,---,0.00,VWS V14.01,2013-08-14 20:10:00,
2013-08-14 15:15:00,76.1,43.3,29.12,WNW,292,5.4,8.3,31,0.00,,---,0.00,VWS V14.01,2013-08-14 20:15:00,
2013-08-14 15:22:00,76.8,43.9,29.12,West,270,4.5,4.5,31,0.00,,---,0.00,VWS V14.01,2013-08-14 20:22:00,
2013-08-14 15:27:00,76.3,43.5,29.14,WNW,292,8.3,8.3,31,0.00,,---,0.00,VWS V14.01,2013-08-14 20:27:00,
2013-08-14 15:32:00,76.5,43.6,29.14,WNW,292,4.0,5.8,31,0.00,,---,0.00,VWS V14.01,2013-08-14 20:32:00,
2013-08-14 15:37:00,77.2,44.2,29.14,WNW,292,4.9,6.3,31,0.00,,---,0.00,VWS V14.01,2013-08-14 20:37:00,
2013-08-14 15:42:00,75.2,42.5,29.12,West,270,5.4,5.4,31,0.00,,---,0.00,VWS V14.01,2013-08-14 20:42:00,
2013-08-14 15:47:00,75.6,42.8,29.12,WNW,292,5.8,8.3,31,0.00,,---,0.00,VWS V14.01,2013-08-14 20:47:00,
2013-08-14 15:53:00,75.2,42.5,29.12,West,270,4.9,5.4,31,0.00,,---,0.00,VWS V14.01,2013-08-14 20:53:00,
2013-08-14 15:58:00,74.8,43.0,29.12,SE,135,2.7,7.6,32,0.00,,---,0.00,VWS V14.01,2013-08-14 20:58:00,
2013-08-14 16:03:00,75.4,43.5,29.12,WNW,292,3.6,3.6,32,0.00,,---,0.00,VWS V14.01,2013-08-14 21:03:00,
2013-08-14 16:08:00,74.8,43.0,29.12,WNW,292,3.1,6.7,32,0.00,,---,0.00,VWS V14.01,2013-08-14 21:08:00,
2013-08-14 16:13:00,74.7,43.7,29.12,West,270,2.7,2.7,33,0.00,,---,0.00,VWS V14.01,2013-08-14 21:13:00,
2013-08-14 16:18:00,74.1,43.2,29.12,East,90,6.3,7.2,33,0.00,,---,0.00,VWS V14.01,2013-08-14 21:18:00,
2013-08-14 16:23:00,73.6,42.7,29.12,WNW,292,6.3,6.3,33,0.00,,---,0.00,VWS V14.01,2013-08-14 21:23:00,
2013-08-14 16:28:00,73.4,42.6,29.14,SSW,202,3.6,5.4,33,0.00,,---,0.00,VWS V14.01,2013-08-14 21:28:00,
2013-08-14 16:34:00,73.4,42.6,29.14,SSE,158,0.0,3.1,33,0.00,,---,0.00,VWS V14.01,2013-08-14 21:34:00,
2013-08-14 16:39:00,74.3,43.4,29.14,WNW,292,5.8,5.8,33,0.00,,---,0.00,VWS V14.01,2013-08-14 21:39:00,
2013-08-14 16:44:00,75.2,43.3,29.12,WNW,292,4.0,5.4,32,0.00,,---,0.00,VWS V14.01,2013-08-14 21:44:00,
2013-08-14 16:49:00,76.3,44.3,29.12,West,270,3.1,4.9,32,0.00,,---,0.00,VWS V14.01,2013-08-14 21:49:00,
2013-08-14 16:54:00,75.9,44.0,29.12,West,270,5.4,5.4,32,0.00,,---,0.00,VWS V14.01,2013-08-14 21:54:00,
2013-08-14 16:59:00,76.5,44.4,29.12,West,270,3.6,4.0,32,0.00,,---,0.00,VWS V14.01,2013-08-14 21:59:00,
2013-08-14 17:05:00,74.8,43.8,29.12,WNW,292,5.8,5.8,33,0.00,,---,0.00,VWS V14.01,2013-08-14 22:05:00,
2013-08-14 17:10:00,74.7,43.7,29.12,West,270,3.1,4.9,33,0.00,,---,0.00,VWS V14.01,2013-08-14 22:10:00,
2013-08-14 17:15:00,74.7,43.7,29.12,WNW,292,2.7,2.7,33,0.00,,---,0.00,VWS V14.01,2013-08-14 22:15:00,
2013-08-14 17:20:00,76.3,44.3,29.12,WSW,248,2.7,5.4,32,0.00,,---,0.00,VWS V14.01,2013-08-14 22:20:00,
2013-08-14 17:25:00,76.5,44.4,29.12,WSW,248,0.0,4.0,32,0.00,,---,0.00,VWS V14.01,2013-08-14 22:25:00,
2013-08-14 17:30:00,76.3,44.3,29.12,SSE,158,3.1,4.9,32,0.00,,---,0.00,VWS V14.01,2013-08-14 22:30:00,
2013-08-14 17:35:00,75.0,43.2,29.12,WNW,292,2.7,2.7,32,0.00,,---,0.00,VWS V14.01,2013-08-14 22:35:00,
2013-08-14 17:40:00,74.5,43.5,29.12,West,270,4.0,4.0,33,0.00,,---,0.00,VWS V14.01,2013-08-14 22:40:00,
2013-08-14 17:46:00,73.8,42.9,29.12,West,270,0.0,2.7,33,0.00,,---,0.00,VWS V14.01,2013-08-14 22:46:00,
2013-08-14 17:51:00,73.6,42.7,29.12,West,270,2.7,4.0,33,0.00,,---,0.00,VWS V14.01,2013-08-14 22:51:00,
2013-08-14 17:56:00,73.2,43.2,29.12,WNW,292,3.1,4.0,34,0.00,,---,0.00,VWS V14.01,2013-08-14 22:56:00,
2013-08-14 18:01:00,73.4,43.3,29.12,SSE,158,3.6,6.3,34,0.00,,---,0.00,VWS V14.01,2013-08-14 23:01:00,
2013-08-14 18:07:00,72.9,43.6,29.12,ESE,112,3.6,3.6,35,0.00,,---,0.00,VWS V14.01,2013-08-14 23:07:00,
2013-08-14 18:12:00,72.7,43.5,29.12,SSE,158,3.6,3.6,35,0.00,,---,0.00,VWS V14.01,2013-08-14 23:12:00,
2013-08-14 18:17:00,72.9,43.6,29.12,SSE,158,3.1,4.0,35,0.00,,---,0.00,VWS V14.01,2013-08-14 23:17:00,
2013-08-14 18:18:00,72.7,43.5,29.12,SSE,158,0.0,4.0,35,0.00,,---,0.00,VWS V14.01,2013-08-14 23:18:00,
2013-08-14 18:23:00,72.7,44.2,29.12,SSE,158,3.6,3.6,36,0.00,,---,0.00,VWS V14.01,2013-08-14 23:23:00,
2013-08-14 18:28:00,72.7,44.2,29.12,SSE,158,2.7,3.6,36,0.00,,---,0.00,VWS V14.01,2013-08-14 23:28:00,
2013-08-14 18:33:00,72.5,44.1,29.12,SSE,158,0.0,4.9,36,0.00,,---,0.00,VWS V14.01,2013-08-14 23:33:00,
2013-08-14 18:38:00,72.5,44.1,29.12,SSE,158,3.1,3.1,36,0.00,,---,0.00,VWS V14.01,2013-08-14 23:38:00,
2013-08-14 18:43:00,72.1,43.7,29.12,SSE,158,0.0,2.7,36,0.00,,---,0.00,VWS V14.01,2013-08-14 23:43:00,
2013-08-14 18:48:00,71.8,43.4,29.12,SSE,158,0.0,0.0,36,0.00,,---,0.00,VWS V14.01,2013-08-14 23:48:00,
2013-08-14 18:54:00,71.4,45.2,29.12,SSE,158,0.0,0.0,39,0.00,,---,0.00,VWS V14.01,2013-08-14 23:54:00,
2013-08-14 18:59:00,71.2,46.4,29.12,SSE,158,0.0,0.0,41,0.00,,---,0.00,VWS V14.01,2013-08-14 23:59:00,
2013-08-14 19:04:00,70.7,45.9,29.12,SSE,158,0.0,0.0,41,0.00,,---,0.00,VWS V14.01,2013-08-15 00:04:00,
2013-08-14 19:09:00,70.5,45.7,29.12,SSE,158,0.0,0.0,41,0.00,,---,0.00,VWS V14.01,2013-08-15 00:09:00,
2013-08-14 19:14:00,70.3,46.2,29.12,SSE,158,0.0,0.0,42,0.00,,---,0.00,VWS V14.01,2013-08-15 00:14:00,
2013-08-14 19:15:00,70.2,46.0,29.12,SSE,158,0.0,0.0,42,0.00,,---,0.00,VWS V14.01,2013-08-15 00:15:00,
2013-08-14 19:20:00,70.0,45.9,29.12,SSE,158,0.0,0.0,42,0.00,,---,0.00,VWS V14.01,2013-08-15 00:20:00,
2013-08-14 19:25:00,70.2,46.0,29.12,SSE,158,0.0,0.0,42,0.00,,---,0.00,VWS V14.01,2013-08-15 00:25:00,
2013-08-14 19:30:00,70.9,46.7,29.12,SSE,158,0.0,0.0,42,0.00,,---,0.00,VWS V14.01,2013-08-15 00:30:00,
2013-08-14 19:36:00,71.6,46.7,29.12,SSE,158,0.0,0.0,41,0.00,,---,0.00,VWS V14.01,2013-08-15 00:36:00,
2013-08-14 19:41:00,71.6,46.0,29.12,SSE,158,0.0,0.0,40,0.00,,---,0.00,VWS V14.01,2013-08-15 00:41:00,
2013-08-14 19:46:00,72.0,46.3,29.12,SSE,158,0.0,0.0,40,0.00,,---,0.00,VWS V14.01,2013-08-15 00:46:00,
2013-08-14 19:51:00,71.8,47.5,29.12,SSE,158,0.0,0.0,42,0.00,,---,0.00,VWS V14.01,2013-08-15 00:51:00,
2013-08-14 19:56:00,70.3,48.0,29.12,SSE,158,0.0,0.0,45,0.00,,---,0.00,VWS V14.01,2013-08-15 00:56:00,
2013-08-14 20:01:00,69.4,48.3,29.12,SSE,158,0.0,0.0,47,0.00,,---,0.00,VWS V14.01,2013-08-15 01:01:00,
2013-08-14 20:06:00,68.4,49.0,29.12,SSE,158,0.0,0.0,50,0.00,,---,0.00,VWS V14.01,2013-08-15 01:06:00,
2013-08-14 20:11:00,67.6,48.9,29.12,SSE,158,0.0,0.0,51,0.00,,---,0.00,VWS V14.01,2013-08-15 01:11:00,
2013-08-14 20:17:00,66.7,48.6,29.12,SSE,158,0.0,0.0,52,0.00,,---,0.00,VWS V14.01,2013-08-15 01:17:00,
2013-08-14 20:22:00,66.0,49.4,29.12,SSE,158,0.0,0.0,55,0.00,,---,0.00,VWS V14.01,2013-08-15 01:22:00,
2013-08-14 20:27:00,65.5,49.9,29.12,SSE,158,0.0,0.0,57,0.00,,---,0.00,VWS V14.01,2013-08-15 01:27:00,
2013-08-14 20:32:00,64.6,49.5,29.12,SSE,158,0.0,0.0,58,0.00,,---,0.00,VWS V14.01,2013-08-15 01:32:00,
2013-08-14 20:37:00,63.9,49.7,29.12,SSE,158,0.0,0.0,60,0.00,,---,0.00,VWS V14.01,2013-08-15 01:37:00,
2013-08-14 20:42:00,63.5,49.4,29.12,SSE,158,0.0,0.0,60,0.00,,---,0.00,VWS V14.01,2013-08-15 01:42:00,
2013-08-14 20:47:00,63.0,49.3,29.12,SSE,158,0.0,0.0,61,0.00,,---,0.00,VWS V14.01,2013-08-15 01:47:00,
2013-08-14 20:52:00,62.4,48.8,29.12,SSE,158,0.0,0.0,61,0.00,,---,0.00,VWS V14.01,2013-08-15 01:52:00,
2013-08-14 20:58:00,61.7,49.0,29.12,SSE,158,0.0,0.0,63,0.00,,---,0.00,VWS V14.01,2013-08-15 01:58:00,
2013-08-14 21:03:00,61.3,49.1,29.12,SSE,158,0.0,0.0,64,0.00,,---,0.00,VWS V14.01,2013-08-15 02:03:00,
2013-08-14 21:08:00,61.2,49.7,29.12,SSE,158,0.0,0.0,66,0.00,,---,0.00,VWS V14.01,2013-08-15 02:08:00,
2013-08-14 21:13:00,60.6,50.0,29.12,SSE,158,0.0,0.0,68,0.00,,---,0.00,VWS V14.01,2013-08-15 02:13:00,
2013-08-14 21:18:00,60.3,49.7,29.12,SSE,158,0.0,0.0,68,0.00,,---,0.00,VWS V14.01,2013-08-15 02:18:00,
2013-08-14 21:23:00,59.9,49.3,29.12,SSE,158,0.0,0.0,68,0.00,,---,0.00,VWS V14.01,2013-08-15 02:23:00,
2013-08-14 21:28:00,59.7,49.2,29.12,SSE,158,0.0,0.0,68,0.00,,---,0.00,VWS V14.01,2013-08-15 02:28:00,
2013-08-14 21:33:00,59.4,49.6,29.12,SSE,158,0.0,0.0,70,0.00,,---,0.00,VWS V14.01,2013-08-15 02:33:00,
2013-08-14 21:38:00,59.2,49.4,29.12,SSE,158,0.0,0.0,70,0.00,,---,0.00,VWS V14.01,2013-08-15 02:38:00,
2013-08-14 21:43:00,59.0,49.2,29.14,SSE,158,0.0,0.0,70,0.00,,---,0.00,VWS V14.01,2013-08-15 02:43:00,
2013-08-14 21:48:00,58.6,49.3,29.14,SSE,158,0.0,0.0,71,0.00,,---,0.00,VWS V14.01,2013-08-15 02:48:00,
2013-08-14 21:53:00,58.3,49.3,29.14,SSE,158,0.0,0.0,72,0.00,,---,0.00,VWS V14.01,2013-08-15 02:53:00,
2013-08-14 21:58:00,58.3,49.7,29.12,SSE,158,0.0,0.0,73,0.00,,---,0.00,VWS V14.01,2013-08-15 02:58:00,
2013-08-14 22:04:00,58.3,49.7,29.12,SSE,158,0.0,0.0,73,0.00,,---,0.00,VWS V14.01,2013-08-15 03:04:00,
2013-08-14 22:09:00,58.3,49.7,29.12,SSE,158,0.0,0.0,73,0.00,,---,0.00,VWS V14.01,2013-08-15 03:09:00,
2013-08-14 22:14:00,58.8,50.2,29.12,SSE,158,0.0,0.0,73,0.00,,---,0.00,VWS V14.01,2013-08-15 03:14:00,
2013-08-14 22:19:00,59.0,49.6,29.12,SSE,158,0.0,0.0,71,0.00,,---,0.00,VWS V14.01,2013-08-15 03:19:00,
2013-08-14 22:24:00,58.6,49.7,29.12,SSE,158,0.0,0.0,72,0.00,,---,0.00,VWS V14.01,2013-08-15 03:24:00,
2013-08-14 22:29:00,58.6,50.0,29.12,SSE,158,0.0,0.0,73,0.00,,---,0.00,VWS V14.01,2013-08-15 03:29:00,
2013-08-14 22:34:00,59.2,50.2,29.12,SSE,158,0.0,0.0,72,0.00,,---,0.00,VWS V14.01,2013-08-15 03:34:00,
2013-08-14 22:39:00,59.4,50.0,29.12,SSE,158,0.0,0.0,71,0.00,,---,0.00,VWS V14.01,2013-08-15 03:39:00,
2013-08-14 22:44:00,59.0,50.0,29.12,SSE,158,0.0,0.0,72,0.00,,---,0.00,VWS V14.01,2013-08-15 03:44:00,
2013-08-14 22:49:00,59.0,50.0,29.12,SSE,158,0.0,0.0,72,0.00,,---,0.00,VWS V14.01,2013-08-15 03:49:00,
2013-08-14 22:54:00,59.2,50.2,29.12,SSE,158,0.0,0.0,72,0.00,,---,0.00,VWS V14.01,2013-08-15 03:54:00,
2013-08-14 22:59:00,58.8,50.2,29.12,SSE,158,0.0,0.0,73,0.00,,---,0.00,VWS V14.01,2013-08-15 03:59:00,
2013-08-14 23:01:00,58.8,50.2,29.12,SSE,158,0.0,0.0,73,0.00,,---,0.00,VWS V14.01,2013-08-15 04:01:00,
2013-08-14 23:02:00,58.6,50.0,29.12,SSE,158,0.0,0.0,73,0.00,,---,0.00,VWS V14.01,2013-08-15 04:02:00,
2013-08-14 23:03:00,58.6,50.0,29.12,SSE,158,0.0,0.0,73,0.00,,---,0.00,VWS V14.01,2013-08-15 04:03:00,
2013-08-14 23:08:00,58.1,49.5,29.12,SSE,158,0.0,0.0,73,0.00,,---,0.00,VWS V14.01,2013-08-15 04:08:00,
2013-08-14 23:13:00,58.1,49.9,29.12,SSE,158,0.0,0.0,74,0.00,,---,0.00,VWS V14.01,2013-08-15 04:13:00,
2013-08-14 23:18:00,57.9,50.0,29.12,SSE,158,0.0,0.0,75,0.00,,---,0.00,VWS V14.01,2013-08-15 04:18:00,
2013-08-14 23:23:00,58.1,50.6,29.12,SSE,158,0.0,0.0,76,0.00,,---,0.00,VWS V14.01,2013-08-15 04:23:00,
2013-08-14 23:28:00,57.9,50.4,29.12,SSE,158,0.0,0.0,76,0.00,,---,0.00,VWS V14.01,2013-08-15 04:28:00,
2013-08-14 23:33:00,57.9,50.8,29.12,SSE,158,0.0,0.0,77,0.00,,---,0.00,VWS V14.01,2013-08-15 04:33:00,
2013-08-14 23:38:00,57.7,50.6,29.12,SSE,158,0.0,0.0,77,0.00,,---,0.00,VWS V14.01,2013-08-15 04:38:00,
2013-08-14 23:43:00,57.6,50.4,29.12,SSE,158,0.0,0.0,77,0.00,,---,0.00,VWS V14.01,2013-08-15 04:43:00,
2013-08-14 23:48:00,57.6,50.8,29.12,SSE,158,0.0,0.0,78,0.00,,---,0.00,VWS V14.01,2013-08-15 04:48:00,
2013-08-14 23:53:00,57.4,51.3,29.12,SSE,158,0.0,0.0,80,0.00,,---,0.00,VWS V14.01,2013-08-15 04:53:00,
2013-08-14 23:58:00,57.4,51.3,29.12,SSE,158,0.0,0.0,80,0.00,,---,0.00,VWS V14.01,2013-08-15 04:58:00,